createdAt,value
2023-01-02T00:01:43.621Z,3.50
2023-01-02T00:04:10.363Z,3.28
2023-01-02T00:06:38.728Z,3.20
2023-01-02T00:09:07.321Z,3.35
2023-01-02T00:11:34.520Z,3.40
2023-01-02T00:14:01.303Z,3.70
2023-01-02T00:16:28.104Z,3.58
2023-01-02T00:18:54.852Z,3.42
2023-01-02T00:21:21.655Z,4.07
2023-01-02T00:23:48.394Z,3.40
2023-01-02T00:26:15.204Z,4.10
2023-01-02T00:28:42.070Z,3.70
2023-01-02T00:31:11.780Z,3.67
2023-01-02T00:33:39.010Z,3.78
2023-01-02T00:36:09.775Z,3.58
2023-01-02T00:38:38.402Z,3.30
2023-01-02T00:41:05.627Z,3.67
2023-01-02T00:43:33.698Z,3.55
2023-01-02T00:46:01.875Z,3.45
2023-01-02T00:48:31.645Z,3.20
2023-01-02T00:50:58.484Z,3.10
2023-01-02T00:53:25.301Z,3.50
2023-01-02T00:55:52.130Z,3.33
2023-01-02T00:58:18.872Z,3.58
2023-01-02T01:00:45.654Z,3.50
2023-01-02T01:03:12.511Z,3.22
2023-01-02T01:05:43.445Z,3.55
2023-01-02T01:08:10.248Z,3.35
2023-01-02T01:10:38.137Z,3.70
2023-01-02T01:13:05.659Z,3.53
2023-01-02T01:15:33.892Z,3.38
2023-01-02T01:18:00.799Z,2.85
2023-01-02T01:20:27.551Z,3.00
2023-01-02T01:22:54.287Z,2.95
2023-01-02T01:25:21.099Z,3.35
2023-01-02T01:27:47.849Z,3.20
2023-01-02T01:30:14.711Z,3.38
2023-01-02T01:32:41.415Z,3.28
2023-01-02T01:35:08.541Z,3.60
2023-01-02T01:37:37.558Z,3.08
2023-01-02T01:40:04.753Z,3.13
2023-01-02T01:42:35.357Z,3.40
2023-01-02T01:45:02.551Z,3.15
2023-01-02T01:47:52.330Z,3.20
2023-01-02T01:50:20.684Z,3.10
2023-01-02T01:52:56.381Z,4.03
2023-01-02T01:55:29.004Z,2.92
2023-01-02T01:58:08.705Z,3.35
2023-01-02T02:00:36.310Z,3.58
2023-01-02T02:03:09.151Z,3.20
2023-01-02T02:05:36.887Z,3.38
2023-01-02T02:08:10.550Z,3.60
2023-01-02T02:10:38.240Z,3.53
2023-01-02T02:13:05.058Z,3.35
2023-01-02T02:16:12.552Z,3.70
2023-01-02T02:19:03.333Z,3.53
2023-01-02T02:21:45.122Z,3.80
2023-01-02T02:24:30.017Z,3.63
2023-01-02T02:27:20.875Z,3.50
2023-01-02T02:29:53.389Z,3.33
2023-01-02T02:35:33.360Z,2.78
2023-01-02T02:38:11.654Z,3.15
2023-01-02T02:40:57.223Z,3.53
2023-01-02T02:43:50.277Z,3.30
2023-01-02T02:46:19.835Z,3.17
2023-01-02T02:49:34.516Z,3.60
2023-01-02T02:52:20.058Z,3.78
2023-01-02T02:54:50.722Z,3.03
2023-01-02T02:57:19.848Z,3.08
2023-01-02T02:59:46.769Z,3.00
2023-01-02T03:02:17.009Z,3.65
2023-01-02T03:04:53.681Z,3.28
2023-01-02T03:07:37.736Z,3.40
2023-01-02T03:10:10.645Z,2.90
2023-01-02T03:12:40.505Z,3.47
2023-01-02T03:15:32.347Z,2.92
2023-01-02T03:18:15.132Z,3.30
2023-01-02T03:23:17.372Z,2.97
2023-01-02T03:25:45.751Z,2.88
2023-01-02T03:28:16.299Z,3.33
2023-01-02T03:30:45.479Z,2.90
2023-01-02T03:33:17.072Z,2.88
2023-01-02T03:35:50.055Z,2.60
2023-01-02T03:38:24.050Z,2.88
2023-01-02T03:41:00.274Z,2.88
2023-01-02T03:43:32.698Z,2.70
2023-01-02T03:49:00.139Z,2.83
2023-01-02T03:51:30.187Z,2.97
2023-01-02T03:53:58.292Z,2.95
2023-01-02T03:56:36.237Z,2.85
2023-01-02T03:59:26.207Z,2.78
2023-01-02T04:02:19.035Z,2.75
2023-01-02T04:10:01.256Z,2.78
2023-01-02T04:12:31.622Z,2.63
2023-01-02T04:15:02.011Z,2.80
2023-01-02T04:17:34.956Z,2.92
2023-01-02T04:20:06.811Z,2.38
2023-01-02T04:22:52.069Z,2.30
2023-01-02T04:25:19.328Z,3.40
2023-01-02T04:28:02.953Z,2.70
2023-01-02T04:30:32.022Z,2.80
2023-01-02T04:33:05.898Z,2.60
2023-01-02T04:35:34.618Z,2.67
2023-01-02T04:38:12.366Z,2.60
2023-01-02T04:40:39.332Z,2.70
2023-01-02T04:43:17.243Z,3.20
2023-01-02T04:45:44.244Z,3.17
2023-01-02T04:48:10.967Z,2.72
2023-01-02T04:50:37.735Z,2.53
2023-01-02T04:53:04.472Z,2.58
2023-01-02T04:55:31.225Z,3.45
2023-01-02T04:57:58.700Z,2.40
2023-01-02T05:00:25.463Z,3.05
2023-01-02T05:02:52.247Z,2.78
2023-01-02T05:05:18.967Z,2.90
2023-01-02T05:07:45.803Z,2.50
2023-01-02T05:10:12.595Z,2.85
2023-01-02T05:12:39.576Z,2.97
2023-01-02T05:15:08.579Z,2.40
2023-01-02T05:17:36.883Z,2.70
2023-01-02T05:20:05.536Z,2.58
2023-01-02T05:22:50.683Z,3.15
2023-01-02T05:25:17.500Z,2.85
2023-01-02T05:27:44.247Z,2.30
2023-01-02T05:30:11.402Z,2.95
2023-01-02T05:32:38.140Z,3.28
2023-01-02T05:35:05.352Z,2.85
2023-01-02T05:37:32.079Z,2.50
2023-01-02T05:39:58.826Z,2.97
2023-01-02T05:42:25.575Z,2.63
2023-01-02T05:44:52.444Z,2.65
2023-01-02T05:47:19.190Z,2.70
2023-01-02T05:49:45.995Z,2.92
2023-01-02T05:52:12.799Z,2.65
2023-01-02T05:54:39.515Z,3.00
2023-01-02T05:57:06.567Z,2.83
2023-01-02T05:59:36.119Z,2.95
2023-01-02T06:02:03.502Z,2.45
2023-01-02T06:04:30.355Z,3.15
2023-01-02T06:06:57.165Z,4.00
2023-01-02T06:09:23.912Z,2.85
2023-01-02T06:11:50.677Z,2.70
2023-01-02T06:14:17.434Z,2.83
2023-01-02T06:16:44.521Z,2.58
2023-01-02T06:19:11.416Z,2.78
2023-01-02T06:21:38.178Z,2.30
2023-01-02T06:24:05.096Z,2.53
2023-01-02T06:26:35.191Z,2.45
2023-01-02T06:29:03.559Z,2.70
2023-01-02T06:31:33.332Z,2.70
2023-01-02T06:34:02.738Z,3.47
2023-01-02T06:36:31.773Z,2.83
2023-01-02T06:38:59.101Z,2.70
2023-01-02T06:41:25.924Z,2.72
2023-01-02T06:43:53.167Z,2.42
2023-01-02T06:46:22.632Z,2.75
2023-01-02T06:48:49.533Z,2.60
2023-01-02T06:51:21.652Z,2.75
2023-01-02T06:53:48.863Z,2.75
2023-01-02T06:56:20.646Z,2.47
2023-01-02T06:58:47.702Z,2.90
2023-01-02T07:01:17.104Z,2.50
2023-01-02T07:03:44.687Z,2.50
2023-01-02T07:06:17.629Z,2.75
2023-01-02T07:08:44.679Z,2.67
2023-01-02T07:11:11.531Z,2.35
2023-01-02T07:13:39.656Z,2.30
2023-01-02T07:16:08.544Z,2.97
2023-01-02T07:18:36.653Z,2.40
2023-01-02T07:21:04.723Z,2.25
2023-01-02T07:23:31.496Z,2.63
2023-01-02T07:26:03.768Z,2.95
2023-01-02T07:28:30.974Z,2.53
2023-01-02T07:31:04.451Z,2.60
2023-01-02T07:33:32.222Z,3.10
2023-01-02T07:36:05.323Z,2.78
2023-01-02T07:38:32.411Z,2.50
2023-01-02T07:40:59.159Z,2.85
2023-01-02T07:43:26.295Z,2.53
2023-01-02T07:45:53.202Z,2.35
2023-01-02T07:48:20.132Z,2.58
2023-01-02T07:50:47.186Z,2.30
2023-01-02T07:53:14.176Z,3.05
2023-01-02T07:55:41.048Z,2.72
2023-01-02T07:58:07.959Z,2.20
2023-01-02T08:00:34.818Z,2.70
2023-01-02T08:03:02.200Z,2.38
2023-01-02T08:05:29.014Z,2.70
2023-01-02T08:07:55.915Z,2.25
2023-01-02T08:10:23.163Z,2.40
2023-01-02T08:12:49.925Z,2.28
2023-01-02T08:15:16.794Z,2.20
2023-01-02T08:17:43.649Z,1.95
2023-01-02T08:20:11.472Z,2.13
2023-01-02T08:22:38.375Z,2.30
2023-01-02T08:25:06.025Z,2.30
2023-01-02T08:27:32.826Z,2.10
2023-01-02T08:29:59.824Z,2.03
2023-01-02T08:32:26.596Z,1.77
2023-01-02T08:34:53.572Z,2.42
2023-01-02T08:37:20.725Z,2.30
2023-01-02T08:39:47.539Z,2.50
2023-01-02T08:42:14.271Z,1.98
2023-01-02T08:44:41.057Z,2.20
2023-01-02T08:47:07.843Z,2.35
2023-01-02T08:49:34.609Z,2.13
2023-01-02T08:52:01.453Z,2.65
2023-01-02T08:54:28.244Z,2.45
2023-01-02T08:56:55.265Z,2.00
2023-01-02T08:59:24.623Z,1.70
2023-01-02T09:01:52.789Z,2.90
2023-01-02T09:04:20.127Z,2.30
2023-01-02T09:06:47.165Z,2.58
2023-01-02T09:09:16.153Z,2.33
2023-01-02T09:11:50.409Z,1.98
2023-01-02T09:14:19.403Z,2.72
2023-01-02T09:16:46.287Z,2.50
2023-01-02T09:19:13.067Z,2.05
2023-01-02T09:21:40.136Z,2.42
2023-01-02T09:24:07.669Z,2.00
2023-01-02T09:26:34.826Z,2.00
2023-01-02T09:29:01.713Z,2.50
2023-01-02T09:31:28.564Z,1.80
2023-01-02T09:33:55.431Z,1.90
2023-01-02T09:36:22.989Z,2.10
2023-01-02T09:39:00.899Z,2.60
2023-01-02T09:41:38.263Z,2.47
2023-01-02T09:44:13.252Z,2.20
2023-01-02T09:46:53.649Z,2.05
2023-01-02T09:49:24.358Z,1.98
2023-01-02T09:51:51.499Z,2.13
2023-01-02T09:54:28.730Z,1.95
2023-01-02T09:57:19.096Z,1.88
2023-01-02T09:59:51.285Z,1.95
2023-01-02T10:02:55.615Z,2.08
2023-01-02T10:05:31.232Z,2.00
2023-01-02T10:08:49.359Z,1.90
2023-01-02T10:11:23.791Z,1.90
2023-01-02T10:16:55.358Z,2.00
2023-01-02T10:19:35.786Z,1.80
2023-01-02T10:22:04.279Z,1.58
2023-01-02T10:24:36.879Z,1.60
2023-01-02T10:27:05.820Z,1.77
2023-01-02T10:29:40.091Z,2.15
2023-01-02T10:32:18.902Z,1.95
2023-01-02T10:34:59.792Z,1.90
2023-01-02T10:37:26.898Z,1.83
2023-01-02T10:39:53.940Z,1.95
2023-01-02T10:42:21.457Z,1.63
2023-01-02T10:44:48.322Z,1.67
2023-01-02T10:47:27.166Z,2.00
2023-01-02T10:49:54.963Z,1.88
2023-01-02T10:52:27.060Z,1.70
2023-01-02T10:55:00.016Z,1.75
2023-01-02T10:57:33.153Z,1.63
2023-01-02T11:00:01.827Z,2.25
2023-01-02T11:02:41.089Z,1.60
2023-01-02T11:05:19.363Z,1.63
2023-01-02T11:07:49.333Z,2.10
2023-01-02T11:10:34.845Z,1.88
2023-01-02T11:13:13.448Z,2.22
2023-01-02T11:16:04.235Z,1.52
2023-01-02T11:18:35.750Z,2.65
2023-01-02T11:21:05.283Z,3.20
2023-01-02T11:23:37.386Z,2.22
2023-01-02T11:26:05.574Z,1.52
2023-01-02T11:28:35.312Z,1.90
2023-01-02T11:31:06.223Z,1.55
2023-01-02T11:33:34.830Z,1.73
2023-01-02T11:36:06.750Z,1.40
2023-01-02T11:38:54.003Z,1.42
2023-01-02T11:41:50.120Z,2.28
2023-01-02T11:44:38.571Z,1.27
2023-01-02T11:47:07.501Z,1.35
2023-01-02T11:49:44.040Z,1.40
2023-01-02T11:52:16.040Z,1.40
2023-01-02T11:54:57.639Z,1.25
2023-01-02T11:57:48.370Z,1.50
2023-01-02T12:00:18.793Z,1.20
2023-01-02T12:02:53.432Z,1.30
2023-01-02T12:05:41.487Z,1.50
2023-01-02T12:08:31.028Z,1.10
2023-01-02T12:11:20.578Z,1.20
2023-01-02T12:13:58.495Z,0.90
2023-01-02T12:16:51.075Z,1.52
2023-01-02T12:19:39.700Z,1.10
2023-01-02T12:22:15.358Z,0.85
2023-01-02T12:24:45.242Z,0.95
2023-01-02T12:27:25.389Z,1.00
2023-01-02T12:30:02.683Z,1.15
2023-01-02T12:32:41.101Z,0.90
2023-01-02T12:35:39.015Z,1.00
2023-01-02T12:38:09.162Z,0.80
2023-01-02T12:41:10.641Z,0.95
2023-01-02T12:43:59.213Z,1.02
2023-01-02T12:46:53.925Z,0.38
2023-01-02T12:49:44.933Z,0.40
2023-01-02T12:52:53.992Z,0.40
2023-01-02T12:55:35.780Z,0.47
2023-01-02T12:58:20.678Z,0.30
2023-01-02T13:01:03.764Z,0.22
2023-01-02T13:04:00.765Z,0.30
2023-01-02T13:06:50.804Z,0.30
2023-01-02T13:09:48.403Z,0.20
2023-01-02T13:12:16.687Z,0.10
2023-01-02T13:14:53.504Z,0.30
2023-01-02T13:17:32.096Z,0.10
2023-01-02T13:20:11.590Z,0.30
2023-01-02T13:22:53.341Z,1.25
2023-01-02T13:25:23.150Z,1.02
2023-01-02T13:27:58.598Z,0.40
2023-01-02T13:30:34.548Z,0.40
2023-01-02T13:33:03.981Z,0.50
2023-01-02T13:35:37.850Z,0.50
2023-01-02T13:38:07.398Z,0.40
2023-01-02T13:40:35.078Z,0.38
2023-01-02T13:43:08.326Z,0.60
2023-01-02T13:45:53.832Z,0.82
2023-01-02T13:48:32.560Z,0.25
2023-01-02T13:51:17.526Z,0.40
2023-01-02T13:53:47.141Z,0.30
2023-01-02T13:56:15.388Z,0.30
2023-01-02T13:58:57.724Z,0.40
2023-01-02T14:01:26.903Z,0.20
2023-01-02T14:04:19.775Z,0.20
2023-01-02T14:09:23.317Z,0.40
2023-01-02T14:11:56.627Z,0.20
2023-01-02T14:14:30.878Z,0.20
2023-01-02T14:17:36.096Z,0.13
2023-01-02T14:20:31.232Z,0.30
2023-01-02T14:23:08.367Z,0.30
2023-01-02T14:25:46.042Z,0.30
2023-01-02T14:28:22.034Z,1.00
2023-01-02T14:30:49.898Z,1.02
2023-01-02T14:33:37.053Z,1.10
2023-01-02T14:36:09.902Z,0.80
2023-01-02T14:38:57.234Z,0.50
2023-01-02T14:42:12.430Z,0.20
2023-01-02T14:44:45.185Z,0.40
2023-01-02T14:47:25.743Z,0.50
2023-01-02T14:49:58.684Z,0.90
2023-01-02T14:52:34.968Z,0.90
2023-01-02T14:55:26.155Z,0.90
2023-01-02T14:57:54.558Z,0.50
2023-01-02T15:00:26.326Z,0.43
2023-01-02T15:03:21.247Z,0.45
2023-01-02T15:05:54.447Z,0.50
2023-01-02T15:08:49.268Z,0.70
2023-01-02T15:11:41.738Z,0.85
2023-01-02T15:14:22.059Z,0.80
2023-01-02T15:16:58.467Z,0.80
2023-01-02T15:19:30.604Z,0.60
2023-01-02T15:21:57.765Z,1.20
2023-01-02T15:24:30.377Z,1.60
2023-01-02T15:27:32.842Z,1.00
2023-01-02T15:30:02.206Z,1.20
2023-01-02T15:32:32.361Z,1.00
2023-01-02T15:35:10.469Z,0.95
2023-01-02T15:37:42.652Z,0.70
2023-01-02T15:40:31.176Z,0.70
2023-01-02T15:43:22.446Z,0.60
2023-01-02T15:45:52.487Z,0.82
2023-01-02T15:48:26.309Z,1.00
2023-01-02T15:50:55.309Z,0.80
2023-01-02T15:53:29.144Z,0.93
2023-01-02T15:55:57.527Z,1.17
2023-01-02T15:58:26.785Z,1.20
2023-01-02T16:01:13.882Z,0.98
2023-01-02T16:04:00.463Z,0.82
2023-01-02T16:06:35.715Z,1.00
2023-01-02T16:09:05.564Z,0.95
2023-01-02T16:11:35.294Z,0.80
2023-01-02T16:14:19.309Z,0.90
2023-01-02T16:16:59.355Z,1.00
2023-01-02T16:19:32.032Z,1.00
2023-01-02T16:22:10.414Z,1.70
2023-01-02T16:24:43.903Z,1.40
2023-01-02T16:27:27.050Z,1.23
2023-01-02T16:29:54.267Z,1.13
2023-01-02T16:32:32.817Z,1.15
2023-01-02T16:35:17.006Z,1.17
2023-01-02T16:38:20.330Z,1.25
2023-01-02T16:41:03.096Z,1.20
2023-01-02T16:43:35.522Z,1.10
2023-01-02T16:46:10.547Z,1.38
2023-01-02T16:51:05.409Z,1.00
2023-01-02T16:53:33.757Z,1.45
2023-01-02T16:56:00.664Z,1.67
2023-01-02T16:58:27.713Z,1.27
2023-01-02T17:00:56.177Z,1.30
2023-01-02T17:03:25.991Z,1.10
2023-01-02T17:06:03.297Z,1.20
2023-01-02T17:08:34.042Z,1.40
2023-01-02T17:11:01.480Z,1.27
2023-01-02T17:13:29.269Z,1.55
2023-01-02T17:15:56.502Z,1.48
2023-01-02T17:18:23.783Z,1.40
2023-01-02T17:20:51.291Z,1.67
2023-01-02T17:23:19.576Z,1.92
2023-01-02T17:25:46.702Z,1.70
2023-01-02T17:28:14.335Z,1.90
2023-01-02T17:30:42.432Z,2.10
2023-01-02T17:33:09.415Z,2.20
2023-01-02T17:35:36.214Z,2.30
2023-01-02T17:38:03.618Z,2.35
2023-01-02T17:40:30.958Z,2.20
2023-01-02T17:42:57.740Z,2.13
2023-01-02T17:45:27.310Z,2.25
2023-01-02T17:48:07.902Z,2.28
2023-01-02T17:50:37.774Z,2.10
2023-01-02T17:53:04.599Z,2.40
2023-01-02T17:55:31.377Z,2.30
2023-01-02T17:58:00.453Z,2.22
2023-01-02T18:04:15.039Z,2.20
2023-01-02T18:06:41.888Z,2.15
2023-01-02T18:09:09.155Z,2.13
2023-01-02T18:11:36.256Z,1.77
2023-01-02T18:14:06.559Z,1.67
2023-01-02T18:16:41.289Z,1.55
2023-01-02T18:19:17.983Z,1.90
2023-01-02T18:21:45.468Z,2.10
2023-01-02T18:24:26.307Z,2.17
2023-01-02T18:27:01.310Z,2.40
2023-01-02T18:29:28.115Z,2.00
2023-01-02T18:31:55.097Z,2.60
2023-01-02T18:37:23.909Z,2.67
2023-01-02T18:39:51.295Z,2.70
2023-01-02T18:42:24.305Z,3.40
2023-01-02T18:44:52.754Z,2.80
2023-01-02T18:47:29.760Z,2.55
2023-01-02T18:50:16.919Z,2.70
2023-01-02T18:52:47.092Z,2.67
2023-01-02T18:55:14.187Z,2.90
2023-01-02T18:57:47.910Z,2.72
2023-01-02T19:00:26.131Z,2.70
2023-01-02T19:03:02.442Z,2.78
2023-01-02T19:05:35.017Z,2.65
2023-01-02T19:08:28.284Z,2.72
2023-01-02T19:10:57.226Z,3.28
2023-01-02T19:13:26.947Z,3.38
2023-01-02T19:16:01.442Z,3.25
2023-01-02T19:18:36.021Z,3.30
2023-01-02T19:21:13.320Z,3.17
2023-01-02T19:24:25.047Z,3.05
2023-01-02T19:26:56.511Z,3.00
2023-01-02T19:29:27.121Z,2.67
2023-01-02T19:32:15.066Z,3.22
2023-01-02T19:34:50.407Z,2.90
2023-01-02T19:37:31.545Z,3.00
2023-01-02T19:40:02.045Z,2.20
2023-01-02T19:42:31.893Z,2.70
2023-01-02T19:45:04.684Z,2.50
2023-01-02T19:47:34.385Z,2.50
2023-01-02T19:50:01.624Z,2.53
2023-01-02T19:52:29.918Z,2.72
2023-01-02T19:54:57.468Z,2.80
2023-01-02T19:57:24.560Z,2.33
2023-01-02T19:59:53.073Z,2.60
2023-01-02T20:02:21.672Z,2.50
2023-01-02T20:04:50.183Z,2.38
2023-01-02T20:07:17.194Z,2.50
2023-01-02T20:09:44.671Z,3.67
2023-01-02T20:12:30.068Z,3.70
2023-01-02T20:14:58.401Z,3.47
2023-01-02T20:17:25.290Z,3.50
2023-01-02T20:19:52.177Z,4.03
2023-01-02T20:22:19.012Z,3.28
2023-01-02T20:24:46.029Z,2.75
2023-01-02T20:27:14.115Z,2.63
2023-01-02T20:29:40.960Z,2.80
2023-01-02T20:32:08.411Z,3.15
2023-01-02T20:34:35.260Z,3.70
2023-01-02T20:37:02.006Z,3.13
2023-01-02T20:39:28.724Z,3.10
2023-01-02T20:41:55.387Z,3.05
2023-01-02T20:44:22.128Z,3.00
2023-01-02T20:46:49.180Z,2.97
2023-01-02T20:49:16.249Z,3.03
2023-01-02T20:51:43.046Z,2.88
2023-01-02T20:54:10.803Z,2.63
2023-01-02T20:56:37.584Z,2.63
2023-01-02T20:59:04.640Z,2.55
2023-01-02T21:01:32.043Z,2.40
2023-01-02T21:03:59.103Z,2.70
2023-01-02T21:06:26.113Z,2.92
2023-01-02T21:08:52.896Z,2.60
2023-01-02T21:11:19.694Z,4.18
2023-01-02T21:13:46.563Z,2.75
2023-01-02T21:16:13.409Z,2.92
2023-01-02T21:18:40.947Z,2.85
2023-01-02T21:21:28.436Z,3.17
2023-01-02T21:23:55.271Z,2.90
2023-01-02T21:26:23.540Z,2.67
2023-01-02T21:28:50.720Z,3.40
2023-01-02T21:31:19.441Z,2.80
2023-01-02T21:33:47.040Z,2.83
2023-01-02T21:36:15.667Z,2.70
2023-01-02T21:38:43.167Z,2.53
2023-01-02T21:41:28.609Z,2.75
2023-01-02T21:43:55.481Z,3.40
2023-01-02T21:46:22.362Z,3.42
2023-01-02T21:48:49.287Z,2.70
2023-01-02T21:51:16.141Z,2.67
2023-01-02T21:53:42.963Z,3.00
2023-01-02T21:56:09.786Z,2.55
2023-01-02T21:58:36.623Z,2.45
2023-01-02T22:01:03.609Z,2.83
2023-01-02T22:03:30.520Z,2.70
2023-01-02T22:05:57.464Z,2.80
2023-01-02T22:08:24.289Z,2.40
2023-01-02T22:10:51.230Z,2.80
2023-01-02T22:13:18.020Z,2.38
2023-01-02T22:15:45.790Z,2.60
2023-01-02T22:18:12.823Z,2.10
2023-01-02T22:20:39.586Z,2.80
2023-01-02T22:23:06.449Z,2.58
2023-01-02T22:25:33.383Z,2.30
2023-01-02T22:28:00.359Z,2.63
2023-01-02T22:30:34.096Z,2.72
2023-01-02T22:33:02.134Z,2.65
2023-01-02T22:35:29.214Z,2.90
2023-01-02T22:37:57.294Z,2.75
2023-01-02T22:40:24.142Z,2.80
2023-01-02T22:43:08.996Z,2.67
2023-01-02T22:45:52.679Z,2.72
2023-01-02T22:48:30.101Z,3.10
2023-01-02T22:51:00.100Z,3.17
2023-01-02T22:53:32.777Z,3.25
2023-01-02T22:56:01.474Z,3.00
2023-01-02T22:58:28.985Z,3.05
2023-01-02T23:01:01.391Z,3.00
2023-01-02T23:03:37.914Z,3.22
2023-01-02T23:06:04.874Z,4.38
2023-01-02T23:08:31.775Z,3.08
2023-01-02T23:10:59.365Z,3.08
2023-01-02T23:13:26.735Z,2.95
2023-01-02T23:16:12.097Z,3.03
2023-01-02T23:18:57.819Z,2.83
2023-01-02T23:21:26.163Z,2.75
2023-01-02T23:23:53.028Z,3.17
2023-01-02T23:26:21.094Z,2.80
2023-01-02T23:31:37.394Z,2.80
2023-01-02T23:34:04.559Z,2.80
2023-01-02T23:36:31.489Z,2.60
2023-01-02T23:38:58.347Z,2.80
2023-01-02T23:41:25.145Z,2.88
2023-01-02T23:43:51.988Z,2.88
2023-01-02T23:46:18.963Z,2.38
2023-01-02T23:48:45.776Z,2.50
2023-01-02T23:51:12.612Z,2.90
2023-01-02T23:53:39.358Z,2.70
2023-01-02T23:56:30.637Z,2.65
2023-01-02T23:59:00.614Z,2.70
